sensor_id;sensor_type;location;lat;lon;timestamp;pressure;altitude;pressure_sealevel;temperature;humidity
61786;BME280;47692;53.714;11.372;2023-04-19T00:01:19;102611.72;;;3.23;79.80
61786;BME280;47692;53.714;11.372;2023-04-19T00:03:44;102611.34;;;3.14;80.25
61786;BME280;47692;53.714;11.372;2023-04-19T00:06:10;102605.94;;;3.08;80.76
61786;BME280;47692;53.714;11.372;2023-04-19T00:08:35;102607.38;;;3.00;80.96
61786;BME280;47692;53.714;11.372;2023-04-19T00:11:00;102607.25;;;2.97;80.75
61786;BME280;47692;53.714;11.372;2023-04-19T00:13:26;102601.38;;;3.01;81.17
61786;BME280;47692;53.714;11.372;2023-04-19T00:15:51;102595.91;;;2.93;81.10
61786;BME280;47692;53.714;11.372;2023-04-19T00:18:16;102599.22;;;2.89;81.10
61786;BME280;47692;53.714;11.372;2023-04-19T00:20:42;102591.50;;;2.90;81.49
61786;BME280;47692;53.714;11.372;2023-04-19T00:23:07;102591.50;;;2.90;80.93
61786;BME280;47692;53.714;11.372;2023-04-19T00:25:33;102584.59;;;2.89;80.97
61786;BME280;47692;53.714;11.372;2023-04-19T00:27:59;102586.13;;;2.84;81.58
61786;BME280;47692;53.714;11.372;2023-04-19T00:30:24;102580.03;;;2.82;81.27
61786;BME280;47692;53.714;11.372;2023-04-19T00:32:49;102578.78;;;2.72;81.62
61786;BME280;47692;53.714;11.372;2023-04-19T00:35:15;102576.22;;;2.72;82.24
61786;BME280;47692;53.714;11.372;2023-04-19T00:37:40;102573.69;;;2.74;82.21
61786;BME280;47692;53.714;11.372;2023-04-19T00:40:06;102567.75;;;2.77;82.04
61786;BME280;47692;53.714;11.372;2023-04-19T00:42:31;102562.72;;;2.80;81.64
61786;BME280;47692;53.714;11.372;2023-04-19T00:44:57;102563.47;;;2.77;81.53
61786;BME280;47692;53.714;11.372;2023-04-19T00:47:22;102570.53;;;2.81;81.62
61786;BME280;47692;53.714;11.372;2023-04-19T00:49:47;102555.69;;;2.75;82.10
61786;BME280;47692;53.714;11.372;2023-04-19T00:52:13;102563.72;;;2.83;82.52
61786;BME280;47692;53.714;11.372;2023-04-19T00:54:38;102569.00;;;2.86;82.87
61786;BME280;47692;53.714;11.372;2023-04-19T00:57:06;102564.13;;;2.94;82.97
61786;BME280;47692;53.714;11.372;2023-04-19T00:59:33;102566.19;;;3.03;81.96
61786;BME280;47692;53.714;11.372;2023-04-19T01:01:58;102573.22;;;3.07;81.77
61786;BME280;47692;53.714;11.372;2023-04-19T01:04:24;102569.91;;;3.10;81.42
61786;BME280;47692;53.714;11.372;2023-04-19T01:06:49;102569.94;;;3.11;81.80
61786;BME280;47692;53.714;11.372;2023-04-19T01:09:15;102570.75;;;3.10;81.78
61786;BME280;47692;53.714;11.372;2023-04-19T01:11:40;102571.47;;;3.06;81.63
61786;BME280;47692;53.714;11.372;2023-04-19T01:14:07;102570.75;;;3.10;81.38
61786;BME280;47692;53.714;11.372;2023-04-19T01:16:32;102569.81;;;3.08;81.44
61786;BME280;47692;53.714;11.372;2023-04-19T01:18:57;102569.19;;;3.14;81.57
61786;BME280;47692;53.714;11.372;2023-04-19T01:21:23;102568.38;;;3.15;81.54
61786;BME280;47692;53.714;11.372;2023-04-19T01:23:48;102566.56;;;3.12;81.36
61786;BME280;47692;53.714;11.372;2023-04-19T01:26:14;102561.16;;;3.06;81.96
61786;BME280;47692;53.714;11.372;2023-04-19T01:28:40;102571.72;;;3.12;81.93
61786;BME280;47692;53.714;11.372;2023-04-19T01:31:05;102563.13;;;3.13;81.89
61786;BME280;47692;53.714;11.372;2023-04-19T01:33:31;102567.41;;;3.13;82.21
61786;BME280;47692;53.714;11.372;2023-04-19T01:35:56;102568.41;;;3.16;81.79
61786;BME280;47692;53.714;11.372;2023-04-19T01:38:21;102562.44;;;3.17;82.12
61786;BME280;47692;53.714;11.372;2023-04-19T01:40:47;102557.22;;;3.16;81.60
61786;BME280;47692;53.714;11.372;2023-04-19T01:43:15;102558.09;;;3.16;81.70
61786;BME280;47692;53.714;11.372;2023-04-19T01:45:41;102558.19;;;3.19;81.61
61786;BME280;47692;53.714;11.372;2023-04-19T01:48:06;102553.88;;;3.18;81.92
61786;BME280;47692;53.714;11.372;2023-04-19T01:50:32;102558.19;;;3.19;82.37
61786;BME280;47692;53.714;11.372;2023-04-19T01:52:58;102556.47;;;3.18;82.03
61786;BME280;47692;53.714;11.372;2023-04-19T01:55:23;102547.53;;;3.10;82.56
61786;BME280;47692;53.714;11.372;2023-04-19T01:57:49;102549.16;;;3.08;82.81
61786;BME280;47692;53.714;11.372;2023-04-19T02:00:17;102546.53;;;3.06;83.07
61786;BME280;47692;53.714;11.372;2023-04-19T02:02:42;102540.50;;;3.06;83.21
61786;BME280;47692;53.714;11.372;2023-04-19T02:05:08;102535.34;;;3.06;83.04
61786;BME280;47692;53.714;11.372;2023-04-19T02:07:33;102535.34;;;3.06;82.63
61786;BME280;47692;53.714;11.372;2023-04-19T02:09:59;102540.50;;;3.06;82.90
61786;BME280;47692;53.714;11.372;2023-04-19T02:12:29;102533.00;;;3.12;83.58
61786;BME280;47692;53.714;11.372;2023-04-19T02:14:56;102532.16;;;3.13;83.10
61786;BME280;47692;53.714;11.372;2023-04-19T02:17:22;102523.81;;;3.20;83.28
61786;BME280;47692;53.714;11.372;2023-04-19T02:19:47;102520.41;;;3.21;82.80
61786;BME280;47692;53.714;11.372;2023-04-19T02:22:13;102520.53;;;3.25;83.13
61786;BME280;47692;53.714;11.372;2023-04-19T02:24:38;102512.72;;;3.23;83.06
61786;BME280;47692;53.714;11.372;2023-04-19T02:27:03;102510.84;;;3.19;83.02
61786;BME280;47692;53.714;11.372;2023-04-19T02:29:29;102514.31;;;3.19;82.98
61786;BME280;47692;53.714;11.372;2023-04-19T02:31:54;102507.47;;;3.20;83.13
61786;BME280;47692;53.714;11.372;2023-04-19T02:34:19;102511.19;;;3.28;83.30
61786;BME280;47692;53.714;11.372;2023-04-19T02:36:45;102507.00;;;3.32;82.83
61786;BME280;47692;53.714;11.372;2023-04-19T02:39:10;102511.31;;;3.31;83.38
61786;BME280;47692;53.714;11.372;2023-04-19T02:41:36;102510.44;;;3.31;84.00
61786;BME280;47692;53.714;11.372;2023-04-19T02:44:01;102496.47;;;3.26;84.45
61786;BME280;47692;53.714;11.372;2023-04-19T02:46:27;102501.97;;;3.35;84.84
61786;BME280;47692;53.714;11.372;2023-04-19T02:48:52;102495.03;;;3.34;84.70
61786;BME280;47692;53.714;11.372;2023-04-19T02:51:17;102494.94;;;3.31;85.10
61786;BME280;47692;53.714;11.372;2023-04-19T02:53:43;102493.06;;;3.27;86.23
61786;BME280;47692;53.714;11.372;2023-04-19T02:56:08;102490.59;;;3.30;86.94
61786;BME280;47692;53.714;11.372;2023-04-19T02:58:33;102486.91;;;3.23;86.74
61786;BME280;47692;53.714;11.372;2023-04-19T03:00:59;102486.13;;;3.26;87.37
61786;BME280;47692;53.714;11.372;2023-04-19T03:03:24;102482.50;;;3.20;88.01
61786;BME280;47692;53.714;11.372;2023-04-19T03:05:49;102486.03;;;3.22;88.41
61786;BME280;47692;53.714;11.372;2023-04-19T03:08:15;102484.28;;;3.21;88.62
61786;BME280;47692;53.714;11.372;2023-04-19T03:10:40;102481.69;;;3.21;88.82
61786;BME280;47692;53.714;11.372;2023-04-19T03:13:06;102480.66;;;3.16;89.46
61786;BME280;47692;53.714;11.372;2023-04-19T03:15:31;102478.94;;;3.17;89.87
61786;BME280;47692;53.714;11.372;2023-04-19T03:17:56;102477.13;;;3.14;90.63
61786;BME280;47692;53.714;11.372;2023-04-19T03:20:21;102477.25;;;3.17;90.99
61786;BME280;47692;53.714;11.372;2023-04-19T03:22:47;102473.84;;;3.18;90.83
61786;BME280;47692;53.714;11.372;2023-04-19T03:25:13;102464.44;;;3.20;90.79
61786;BME280;47692;53.714;11.372;2023-04-19T03:27:38;102461.09;;;3.23;90.41
61786;BME280;47692;53.714;11.372;2023-04-19T03:30:04;102464.50;;;3.22;91.11
61786;BME280;47692;53.714;11.372;2023-04-19T03:32:30;102459.41;;;3.23;90.81
61786;BME280;47692;53.714;11.372;2023-04-19T03:34:56;102456.69;;;3.20;91.04
61786;BME280;47692;53.714;11.372;2023-04-19T03:37:21;102453.53;;;3.28;90.46
61786;BME280;47692;53.714;11.372;2023-04-19T03:39:46;102460.22;;;3.22;90.81
61786;BME280;47692;53.714;11.372;2023-04-19T03:42:12;102457.66;;;3.22;90.69
61786;BME280;47692;53.714;11.372;2023-04-19T03:44:37;102451.59;;;3.22;90.85
61786;BME280;47692;53.714;11.372;2023-04-19T03:47:03;102460.22;;;3.22;90.52
61786;BME280;47692;53.714;11.372;2023-04-19T03:49:28;102451.59;;;3.22;90.53
61786;BME280;47692;53.714;11.372;2023-04-19T03:51:53;102449.00;;;3.22;90.60
61786;BME280;47692;53.714;11.372;2023-04-19T03:54:19;102454.94;;;3.19;90.23
61786;BME280;47692;53.714;11.372;2023-04-19T03:56:44;102445.50;;;3.20;90.27
61786;BME280;47692;53.714;11.372;2023-04-19T03:59:09;102449.69;;;3.16;89.94
61786;BME280;47692;53.714;11.372;2023-04-19T04:01:35;102450.44;;;3.14;89.89
61786;BME280;47692;53.714;11.372;2023-04-19T04:04:06;102452.22;;;3.15;90.12
61786;BME280;47692;53.714;11.372;2023-04-19T04:06:32;102451.09;;;3.08;90.09
61786;BME280;47692;53.714;11.372;2023-04-19T04:08:57;102448.19;;;2.99;90.43
61786;BME280;47692;53.714;11.372;2023-04-19T04:11:23;102444.56;;;2.94;90.96
61786;BME280;47692;53.714;11.372;2023-04-19T04:13:49;102443.03;;;2.99;90.96
61786;BME280;47692;53.714;11.372;2023-04-19T04:16:15;102449.13;;;3.01;90.37
61786;BME280;47692;53.714;11.372;2023-04-19T04:18:40;102444.72;;;2.98;90.03
61786;BME280;47692;53.714;11.372;2023-04-19T04:21:05;102450.66;;;2.96;90.16
61786;BME280;47692;53.714;11.372;2023-04-19T04:23:31;102450.78;;;2.99;90.00
61786;BME280;47692;53.714;11.372;2023-04-19T04:25:59;102451.59;;;2.98;89.49
61786;BME280;47692;53.714;11.372;2023-04-19T04:28:28;102445.41;;;2.93;89.81
61786;BME280;47692;53.714;11.372;2023-04-19T04:30:54;102449.03;;;2.98;89.86
61786;BME280;47692;53.714;11.372;2023-04-19T04:33:26;102449.03;;;2.98;89.90
61786;BME280;47692;53.714;11.372;2023-04-19T04:35:53;102443.94;;;3.01;89.76
61786;BME280;47692;53.714;11.372;2023-04-19T04:38:19;102442.44;;;3.06;89.47
61786;BME280;47692;53.714;11.372;2023-04-19T04:40:51;102439.00;;;3.07;89.00
61786;BME280;47692;53.714;11.372;2023-04-19T04:43:22;102452.84;;;3.09;88.78
61786;BME280;47692;53.714;11.372;2023-04-19T04:45:48;102445.16;;;3.11;88.59
61786;BME280;47692;53.714;11.372;2023-04-19T04:48:14;102442.44;;;3.06;88.92
61786;BME280;47692;53.714;11.372;2023-04-19T04:50:40;102441.81;;;3.13;88.43
61786;BME280;47692;53.714;11.372;2023-04-19T04:53:05;102443.75;;;3.19;88.19
61786;BME280;47692;53.714;11.372;2023-04-19T04:55:31;102445.69;;;3.25;88.15
61786;BME280;47692;53.714;11.372;2023-04-19T04:57:56;102446.75;;;3.31;87.79
61786;BME280;47692;53.714;11.372;2023-04-19T05:00:22;102441.75;;;3.36;87.70
61786;BME280;47692;53.714;11.372;2023-04-19T05:02:48;102436.00;;;3.43;86.75
61786;BME280;47692;53.714;11.372;2023-04-19T05:05:13;102445.53;;;3.46;87.28
61786;BME280;47692;53.714;11.372;2023-04-19T05:07:38;102447.22;;;3.45;87.72
61786;BME280;47692;53.714;11.372;2023-04-19T05:10:04;102443.91;;;3.49;87.56
61786;BME280;47692;53.714;11.372;2023-04-19T05:12:30;102454.38;;;3.52;87.25
61786;BME280;47692;53.714;11.372;2023-04-19T05:14:55;102444.47;;;3.65;86.17
61786;BME280;47692;53.714;11.372;2023-04-19T05:17:21;102444.75;;;3.74;85.68
61786;BME280;47692;53.714;11.372;2023-04-19T05:19:46;102445.81;;;3.79;85.74
61786;BME280;47692;53.714;11.372;2023-04-19T05:22:11;102451.22;;;3.87;84.79
61786;BME280;47692;53.714;11.372;2023-04-19T05:24:37;102454.81;;;3.92;84.51
61786;BME280;47692;53.714;11.372;2023-04-19T05:27:02;102452.41;;;3.97;84.24
61786;BME280;47692;53.714;11.372;2023-04-19T05:29:27;102455.19;;;4.03;83.77
61786;BME280;47692;53.714;11.372;2023-04-19T05:31:52;102453.56;;;4.07;84.00
61786;BME280;47692;53.714;11.372;2023-04-19T05:34:18;102454.44;;;4.07;83.68
61786;BME280;47692;53.714;11.372;2023-04-19T05:36:43;102451.03;;;4.08;83.94
61786;BME280;47692;53.714;11.372;2023-04-19T05:39:08;102449.53;;;4.16;83.38
61786;BME280;47692;53.714;11.372;2023-04-19T05:41:34;102452.28;;;4.21;83.72
61786;BME280;47692;53.714;11.372;2023-04-19T05:43:59;102444.88;;;4.32;82.93
61786;BME280;47692;53.714;11.372;2023-04-19T05:46:24;102452.84;;;4.40;82.41
61786;BME280;47692;53.714;11.372;2023-04-19T05:48:50;102452.06;;;4.42;82.82
61786;BME280;47692;53.714;11.372;2023-04-19T05:51:15;102454.03;;;4.49;82.12
61786;BME280;47692;53.714;11.372;2023-04-19T05:53:43;102448.19;;;4.57;82.64
61786;BME280;47692;53.714;11.372;2023-04-19T05:56:08;102446.66;;;4.63;81.94
61786;BME280;47692;53.714;11.372;2023-04-19T05:58:34;102446.88;;;4.71;82.15
61786;BME280;47692;53.714;11.372;2023-04-19T06:01:00;102439.47;;;4.83;81.22
61786;BME280;47692;53.714;11.372;2023-04-19T06:03:26;102443.09;;;4.89;80.66
61786;BME280;47692;53.714;11.372;2023-04-19T06:05:51;102442.50;;;4.99;80.64
61786;BME280;47692;53.714;11.372;2023-04-19T06:08:16;102441.09;;;5.10;80.21
61786;BME280;47692;53.714;11.372;2023-04-19T06:10:43;102442.13;;;5.17;79.91
61786;BME280;47692;53.714;11.372;2023-04-19T06:13:11;102444.03;;;5.23;78.59
61786;BME280;47692;53.714;11.372;2023-04-19T06:15:36;102443.41;;;5.33;78.19
61786;BME280;47692;53.714;11.372;2023-04-19T06:18:04;102439.34;;;5.41;78.61
61786;BME280;47692;53.714;11.372;2023-04-19T06:20:34;102441.16;;;5.45;78.47
61786;BME280;47692;53.714;11.372;2023-04-19T06:23:00;102437.97;;;5.56;78.79
61786;BME280;47692;53.714;11.372;2023-04-19T06:25:25;102440.72;;;5.62;78.92
61786;BME280;47692;53.714;11.372;2023-04-19T06:27:50;102445.31;;;5.72;78.67
61786;BME280;47692;53.714;11.372;2023-04-19T06:30:16;102447.22;;;5.79;79.27
61786;BME280;47692;53.714;11.372;2023-04-19T06:32:41;102442.09;;;5.82;78.50
61786;BME280;47692;53.714;11.372;2023-04-19T06:35:07;102449.22;;;5.91;79.26
61786;BME280;47692;53.714;11.372;2023-04-19T06:37:32;102444.31;;;6.01;79.00
61786;BME280;47692;53.714;11.372;2023-04-19T06:39:58;102447.09;;;6.10;77.84
61786;BME280;47692;53.714;11.372;2023-04-19T06:42:24;102449.81;;;6.14;77.90
61786;BME280;47692;53.714;11.372;2023-04-19T06:44:51;102448.34;;;6.26;76.21
61786;BME280;47692;53.714;11.372;2023-04-19T06:47:17;102441.34;;;6.22;75.32
61786;BME280;47692;53.714;11.372;2023-04-19T06:49:43;102438.91;;;6.29;77.01
61786;BME280;47692;53.714;11.372;2023-04-19T06:52:08;102440.00;;;6.39;76.46
61786;BME280;47692;53.714;11.372;2023-04-19T06:54:34;102439.34;;;6.50;75.91
61786;BME280;47692;53.714;11.372;2023-04-19T06:56:59;102429.88;;;6.52;75.48
61786;BME280;47692;53.714;11.372;2023-04-19T06:59:26;102426.63;;;6.62;76.01
61786;BME280;47692;53.714;11.372;2023-04-19T07:01:52;102425.13;;;6.73;74.84
61786;BME280;47692;53.714;11.372;2023-04-19T07:04:18;102423.56;;;6.82;73.01
61786;BME280;47692;53.714;11.372;2023-04-19T07:06:47;102430.53;;;6.83;73.25
61786;BME280;47692;53.714;11.372;2023-04-19T07:09:13;102426.22;;;6.85;74.07
61786;BME280;47692;53.714;11.372;2023-04-19T07:11:38;102422.84;;;6.89;73.74
61786;BME280;47692;53.714;11.372;2023-04-19T07:14:04;102422.09;;;6.96;72.17
61786;BME280;47692;53.714;11.372;2023-04-19T07:16:29;102411.91;;;7.05;72.01
61786;BME280;47692;53.714;11.372;2023-04-19T07:18:54;102411.84;;;7.02;71.33
61786;BME280;47692;53.714;11.372;2023-04-19T07:21:20;102413.66;;;7.06;70.82
61786;BME280;47692;53.714;11.372;2023-04-19T07:23:46;102409.59;;;7.21;71.72
61786;BME280;47692;53.714;11.372;2023-04-19T07:26:11;102414.06;;;7.28;72.51
61786;BME280;47692;53.714;11.372;2023-04-19T07:28:38;102406.34;;;7.31;72.21
61786;BME280;47692;53.714;11.372;2023-04-19T07:31:03;102398.66;;;7.37;72.12
61786;BME280;47692;53.714;11.372;2023-04-19T07:33:29;102401.38;;;7.45;71.41
61786;BME280;47692;53.714;11.372;2023-04-19T07:35:55;102400.53;;;7.48;70.42
61786;BME280;47692;53.714;11.372;2023-04-19T07:38:21;102392.03;;;7.58;70.04
61786;BME280;47692;53.714;11.372;2023-04-19T07:40:46;102400.75;;;7.60;70.06
61786;BME280;47692;53.714;11.372;2023-04-19T07:43:11;102387.75;;;7.58;69.92
61786;BME280;47692;53.714;11.372;2023-04-19T07:45:37;102387.94;;;7.71;72.13
61786;BME280;47692;53.714;11.372;2023-04-19T07:48:03;102389.75;;;7.76;70.08
61786;BME280;47692;53.714;11.372;2023-04-19T07:50:28;102389.81;;;7.81;69.21
61786;BME280;47692;53.714;11.372;2023-04-19T07:52:53;102387.25;;;7.83;69.45
61786;BME280;47692;53.714;11.372;2023-04-19T07:55:20;102382.22;;;7.95;70.31
61786;BME280;47692;53.714;11.372;2023-04-19T07:57:46;102384.09;;;8.05;69.49
61786;BME280;47692;53.714;11.372;2023-04-19T08:00:16;102395.41;;;8.09;69.79
61786;BME280;47692;53.714;11.372;2023-04-19T08:02:45;102405.00;;;8.12;69.53
61786;BME280;47692;53.714;11.372;2023-04-19T08:05:11;102395.50;;;8.15;69.01
61786;BME280;47692;53.714;11.372;2023-04-19T08:07:38;102391.31;;;8.25;70.89
61786;BME280;47692;53.714;11.372;2023-04-19T08:10:05;102396.75;;;8.42;70.35
61786;BME280;47692;53.714;11.372;2023-04-19T08:12:31;102388.16;;;8.48;68.15
61786;BME280;47692;53.714;11.372;2023-04-19T08:14:56;102387.38;;;8.52;66.70
61786;BME280;47692;53.714;11.372;2023-04-19T08:17:22;102383.03;;;8.54;66.38
61786;BME280;47692;53.714;11.372;2023-04-19T08:19:48;102389.13;;;8.54;66.58
61786;BME280;47692;53.714;11.372;2023-04-19T08:22:18;102383.03;;;8.54;65.36
61786;BME280;47692;53.714;11.372;2023-04-19T08:24:43;102380.41;;;8.51;64.55
61786;BME280;47692;53.714;11.372;2023-04-19T08:27:09;102372.59;;;8.52;64.42
61786;BME280;47692;53.714;11.372;2023-04-19T08:29:35;102370.13;;;8.62;62.75
61786;BME280;47692;53.714;11.372;2023-04-19T08:32:01;102368.28;;;8.53;61.99
61786;BME280;47692;53.714;11.372;2023-04-19T08:34:27;102368.31;;;8.56;62.68
61786;BME280;47692;53.714;11.372;2023-04-19T08:36:52;102365.84;;;8.65;62.61
61786;BME280;47692;53.714;11.372;2023-04-19T08:39:18;102361.56;;;8.70;62.30
61786;BME280;47692;53.714;11.372;2023-04-19T08:41:43;102360.75;;;8.78;61.47
61786;BME280;47692;53.714;11.372;2023-04-19T08:44:12;102353.94;;;8.89;62.34
61786;BME280;47692;53.714;11.372;2023-04-19T08:46:37;102359.22;;;8.98;62.18
61786;BME280;47692;53.714;11.372;2023-04-19T08:49:07;102349.66;;;8.96;60.82
61786;BME280;47692;53.714;11.372;2023-04-19T08:51:33;102343.72;;;9.08;61.68
61786;BME280;47692;53.714;11.372;2023-04-19T08:54:00;102343.78;;;9.14;58.83
61786;BME280;47692;53.714;11.372;2023-04-19T08:56:28;102335.97;;;9.18;58.87
61786;BME280;47692;53.714;11.372;2023-04-19T08:58:54;102339.44;;;9.17;59.45
61786;BME280;47692;53.714;11.372;2023-04-19T09:01:20;102336.88;;;9.22;58.53
61786;BME280;47692;53.714;11.372;2023-04-19T09:03:45;102336.00;;;9.23;58.55
61786;BME280;47692;53.714;11.372;2023-04-19T09:06:11;102343.91;;;9.32;58.98
61786;BME280;47692;53.714;11.372;2023-04-19T09:08:38;102331.75;;;9.34;57.26
61786;BME280;47692;53.714;11.372;2023-04-19T09:11:04;102336.22;;;9.46;58.38
61786;BME280;47692;53.714;11.372;2023-04-19T09:13:30;102344.06;;;9.51;59.74
61786;BME280;47692;53.714;11.372;2023-04-19T09:15:56;102325.75;;;9.43;57.53
61786;BME280;47692;53.714;11.372;2023-04-19T09:18:24;102323.09;;;9.38;56.57
61786;BME280;47692;53.714;11.372;2023-04-19T09:20:49;102319.69;;;9.44;56.65
61786;BME280;47692;53.714;11.372;2023-04-19T09:23:21;102324.91;;;9.44;56.38
61786;BME280;47692;53.714;11.372;2023-04-19T09:25:53;102321.53;;;9.56;57.77
61786;BME280;47692;53.714;11.372;2023-04-19T09:28:19;102319.81;;;9.63;56.81
61786;BME280;47692;53.714;11.372;2023-04-19T09:30:45;102305.91;;;9.67;58.63
61786;BME280;47692;53.714;11.372;2023-04-19T09:33:11;102306.00;;;9.75;55.12
61786;BME280;47692;53.714;11.372;2023-04-19T09:35:45;102313.00;;;9.85;57.92
61786;BME280;47692;53.714;11.372;2023-04-19T09:38:14;102306.88;;;9.80;55.55
61786;BME280;47692;53.714;11.372;2023-04-19T09:40:40;102300.84;;;9.90;57.56
61786;BME280;47692;53.714;11.372;2023-04-19T09:43:06;102300.03;;;9.97;55.88
61786;BME280;47692;53.714;11.372;2023-04-19T09:45:41;102286.88;;;9.82;54.83
61786;BME280;47692;53.714;11.372;2023-04-19T09:48:07;102297.34;;;9.88;56.99
61786;BME280;47692;53.714;11.372;2023-04-19T09:50:33;102290.41;;;9.93;57.16
61786;BME280;47692;53.714;11.372;2023-04-19T09:52:58;102288.72;;;9.98;56.83
61786;BME280;47692;53.714;11.372;2023-04-19T09:55:25;102287.88;;;10.06;57.04
61786;BME280;47692;53.714;11.372;2023-04-19T09:57:51;102273.06;;;9.98;56.55
61786;BME280;47692;53.714;11.372;2023-04-19T10:00:16;102268.75;;;10.03;56.49
61786;BME280;47692;53.714;11.372;2023-04-19T10:02:43;102278.31;;;10.05;56.04
61786;BME280;47692;53.714;11.372;2023-04-19T10:05:09;102275.72;;;10.05;55.67
61786;BME280;47692;53.714;11.372;2023-04-19T10:07:35;102273.09;;;10.08;58.08
61786;BME280;47692;53.714;11.372;2023-04-19T10:10:02;102273.13;;;10.14;58.43
61786;BME280;47692;53.714;11.372;2023-04-19T10:12:28;102266.19;;;10.19;58.52
61786;BME280;47692;53.714;11.372;2023-04-19T10:14:55;102259.22;;;10.24;55.15
61786;BME280;47692;53.714;11.372;2023-04-19T10:17:23;102264.44;;;10.24;56.07
61786;BME280;47692;53.714;11.372;2023-04-19T10:20:02;102255.75;;;10.19;57.58
61786;BME280;47692;53.714;11.372;2023-04-19T10:22:31;102254.06;;;10.33;57.34
61786;BME280;47692;53.714;11.372;2023-04-19T10:25:10;102251.44;;;10.35;56.35
61786;BME280;47692;53.714;11.372;2023-04-19T10:27:37;102258.44;;;10.36;53.79
61786;BME280;47692;53.714;11.372;2023-04-19T10:30:03;102243.56;;;10.15;51.42
61786;BME280;47692;53.714;11.372;2023-04-19T10:32:44;102247.91;;;10.17;53.79
61786;BME280;47692;53.714;11.372;2023-04-19T10:35:19;102261.00;;;10.31;56.90
61786;BME280;47692;53.714;11.372;2023-04-19T10:38:07;102245.41;;;10.50;54.05
61786;BME280;47692;53.714;11.372;2023-04-19T10:43:29;102245.44;;;10.61;55.31
61786;BME280;47692;53.714;11.372;2023-04-19T10:46:01;102237.59;;;10.50;55.42
61786;BME280;47692;53.714;11.372;2023-04-19T10:48:30;102235.00;;;10.62;57.27
61786;BME280;47692;53.714;11.372;2023-04-19T10:51:15;102236.72;;;10.59;55.20
61786;BME280;47692;53.714;11.372;2023-04-19T10:56:09;102226.28;;;10.63;56.81
61786;BME280;47692;53.714;11.372;2023-04-19T11:04:05;102224.56;;;10.78;56.08
61786;BME280;47692;53.714;11.372;2023-04-19T11:06:32;102213.25;;;10.82;54.95
61786;BME280;47692;53.714;11.372;2023-04-19T11:08:58;102229.81;;;10.78;54.03
61786;BME280;47692;53.714;11.372;2023-04-19T11:11:25;102207.13;;;10.61;52.79
61786;BME280;47692;53.714;11.372;2023-04-19T11:13:50;102221.09;;;10.88;54.35
61786;BME280;47692;53.714;11.372;2023-04-19T11:16:17;102208.88;;;10.90;53.23
61786;BME280;47692;53.714;11.372;2023-04-19T11:18:43;102211.50;;;10.81;54.33
61786;BME280;47692;53.714;11.372;2023-04-19T11:21:12;102212.38;;;10.86;54.63
61786;BME280;47692;53.714;11.372;2023-04-19T11:23:38;102208.88;;;10.96;54.53
61786;BME280;47692;53.714;11.372;2023-04-19T11:26:03;102198.41;;;11.18;54.25
61786;BME280;47692;53.714;11.372;2023-04-19T11:28:32;102201.91;;;11.09;55.10
61786;BME280;47692;53.714;11.372;2023-04-19T11:30:58;102200.13;;;11.16;54.92
61786;BME280;47692;53.714;11.372;2023-04-19T11:33:23;102201.91;;;11.00;52.78
61786;BME280;47692;53.714;11.372;2023-04-19T11:35:49;102194.94;;;11.07;53.23
61786;BME280;47692;53.714;11.372;2023-04-19T11:38:15;102192.28;;;11.28;52.30
61786;BME280;47692;53.714;11.372;2023-04-19T11:40:41;102187.06;;;11.16;53.33
61786;BME280;47692;53.714;11.372;2023-04-19T11:43:06;102187.09;;;11.19;52.73
61786;BME280;47692;53.714;11.372;2023-04-19T11:45:34;102187.94;;;11.30;51.19
61786;BME280;47692;53.714;11.372;2023-04-19T11:48:01;102174.78;;;11.55;52.93
61786;BME280;47692;53.714;11.372;2023-04-19T11:50:36;102178.25;;;11.59;53.56
61786;BME280;47692;53.714;11.372;2023-04-19T11:53:20;102174.75;;;11.61;50.53
61786;BME280;47692;53.714;11.372;2023-04-19T11:55:47;102170.38;;;11.67;51.64
61786;BME280;47692;53.714;11.372;2023-04-19T12:01:04;102168.75;;;11.38;49.73
61786;BME280;47692;53.714;11.372;2023-04-19T12:03:31;102166.09;;;11.41;49.31
61786;BME280;47692;53.714;11.372;2023-04-19T12:05:58;102181.72;;;11.59;50.81
61786;BME280;47692;53.714;11.372;2023-04-19T12:08:38;102170.25;;;11.98;46.65
61786;BME280;47692;53.714;11.372;2023-04-19T12:11:05;102177.22;;;11.95;47.48
61786;BME280;47692;53.714;11.372;2023-04-19T12:13:31;102170.25;;;11.98;48.46
61786;BME280;47692;53.714;11.372;2023-04-19T12:15:56;102157.13;;;12.04;46.88
61786;BME280;47692;53.714;11.372;2023-04-19T12:18:22;102173.56;;;12.27;49.52
61786;BME280;47692;53.714;11.372;2023-04-19T12:20:49;102169.06;;;12.50;49.27
61786;BME280;47692;53.714;11.372;2023-04-19T12:23:17;102176.91;;;12.51;48.53
61786;BME280;47692;53.714;11.372;2023-04-19T12:25:45;102171.75;;;12.39;45.83
61786;BME280;47692;53.714;11.372;2023-04-19T12:28:11;102169.22;;;12.25;45.43
61786;BME280;47692;53.714;11.372;2023-04-19T12:30:37;102160.63;;;12.00;45.31
61786;BME280;47692;53.714;11.372;2023-04-19T12:33:03;102165.75;;;12.23;46.25
61786;BME280;47692;53.714;11.372;2023-04-19T12:35:29;102167.44;;;12.27;46.27
61786;BME280;47692;53.714;11.372;2023-04-19T12:37:58;102169.09;;;12.45;46.15
61786;BME280;47692;53.714;11.372;2023-04-19T12:40:24;102154.03;;;12.69;43.42
61786;BME280;47692;53.714;11.372;2023-04-19T12:42:50;102153.81;;;12.93;44.68
61786;BME280;47692;53.714;11.372;2023-04-19T12:45:16;102163.41;;;12.99;44.72
61786;BME280;47692;53.714;11.372;2023-04-19T12:47:42;102157.72;;;13.36;44.09
61786;BME280;47692;53.714;11.372;2023-04-19T12:50:08;102155.19;;;13.29;43.30
61786;BME280;47692;53.714;11.372;2023-04-19T12:52:34;102152.91;;;12.99;44.04
61786;BME280;47692;53.714;11.372;2023-04-19T12:54:59;102147.56;;;13.08;45.84
61786;BME280;47692;53.714;11.372;2023-04-19T12:57:25;102145.91;;;13.00;43.47